Time,TemperatureF,DewpointF,PressureIn,WindDirection,WindDirectionDegrees,WindSpeedMPH,WindSpeedGustMPH,Humidity,HourlyPrecipIn,Conditions,Clouds,dailyrainin,SolarRadiationWatts/m^2,SoftwareType,DateUTC
2013-07-26 00:02:00,71.0,37.0,-100.00,West,280,1.0,7.0,29,0.00,,,0.00,1.000000,,2013-07-26 06:02:00,
2013-07-26 00:11:00,71.0,37.0,-100.00,West,280,1.0,7.0,29,0.00,,,0.00,1.000000,,2013-07-26 06:11:00,
2013-07-26 00:33:00,66.0,36.0,-100.00,West,267,1.0,4.0,33,0.00,,,0.00,0.000000,,2013-07-26 06:33:00,
2013-07-26 00:43:00,66.0,36.0,-100.00,West,267,1.0,4.0,33,0.00,,,0.00,0.000000,,2013-07-26 06:43:00,
2013-07-26 00:52:00,66.0,36.0,-100.00,West,267,1.0,4.0,33,0.00,,,0.00,0.000000,,2013-07-26 06:52:00,
2013-07-26 01:02:00,66.0,36.0,-100.00,West,267,1.0,4.0,33,0.00,,,0.00,0.000000,,2013-07-26 07:02:00,
2013-07-26 01:12:00,66.0,36.0,-100.00,West,267,1.0,4.0,33,0.00,,,0.00,0.000000,,2013-07-26 07:12:00,
2013-07-26 01:32:00,62.0,38.0,-100.00,SW,233,1.0,5.0,41,0.00,,,0.00,0.000000,,2013-07-26 07:32:00,
2013-07-26 01:43:00,62.0,38.0,-100.00,SW,233,1.0,5.0,41,0.00,,,0.00,0.000000,,2013-07-26 07:43:00,
2013-07-26 01:53:00,62.0,38.0,-100.00,SW,233,1.0,5.0,41,0.00,,,0.00,0.000000,,2013-07-26 07:53:00,
2013-07-26 02:02:00,62.0,38.0,-100.00,SW,233,1.0,5.0,41,0.00,,,0.00,0.000000,,2013-07-26 08:02:00,
2013-07-26 02:12:00,62.0,38.0,-100.00,SW,233,1.0,5.0,41,0.00,,,0.00,0.000000,,2013-07-26 08:12:00,
2013-07-26 02:32:00,60.0,36.0,-100.00,West,274,1.0,7.0,41,0.00,,,0.00,0.000000,,2013-07-26 08:32:00,
2013-07-26 02:44:00,60.0,36.0,-100.00,West,274,1.0,7.0,41,0.00,,,0.00,0.000000,,2013-07-26 08:44:00,
2013-07-26 02:52:00,60.0,36.0,-100.00,West,274,1.0,7.0,41,0.00,,,0.00,0.000000,,2013-07-26 08:52:00,
2013-07-26 03:02:00,60.0,36.0,-100.00,West,274,1.0,7.0,41,0.00,,,0.00,0.000000,,2013-07-26 09:02:00,
2013-07-26 03:12:00,60.0,36.0,-100.00,West,274,1.0,7.0,41,0.00,,,0.00,0.000000,,2013-07-26 09:12:00,
2013-07-26 03:43:00,57.0,36.0,-100.00,WSW,256,2.0,5.0,45,0.00,,,0.00,0.000000,,2013-07-26 09:43:00,
2013-07-26 03:52:00,57.0,36.0,-100.00,WSW,256,2.0,5.0,45,0.00,,,0.00,0.000000,,2013-07-26 09:52:00,
2013-07-26 04:02:00,57.0,36.0,-100.00,WSW,256,2.0,5.0,45,0.00,,,0.00,0.000000,,2013-07-26 10:02:00,
2013-07-26 04:11:00,57.0,36.0,-100.00,WSW,256,2.0,5.0,45,0.00,,,0.00,0.000000,,2013-07-26 10:11:00,
2013-07-26 04:33:00,55.0,36.0,-100.00,SSW,211,3.0,4.0,49,0.00,,,0.00,0.000000,,2013-07-26 10:33:00,
2013-07-26 04:43:00,55.0,36.0,-100.00,SSW,211,3.0,4.0,49,0.00,,,0.00,0.000000,,2013-07-26 10:43:00,
2013-07-26 04:52:00,55.0,36.0,-100.00,SSW,211,3.0,4.0,49,0.00,,,0.00,0.000000,,2013-07-26 10:52:00,
2013-07-26 05:02:00,55.0,36.0,-100.00,SSW,211,3.0,4.0,49,0.00,,,0.00,0.000000,,2013-07-26 11:02:00,
2013-07-26 05:12:00,55.0,36.0,-100.00,SSW,211,3.0,4.0,49,0.00,,,0.00,0.000000,,2013-07-26 11:12:00,
2013-07-26 05:43:00,53.0,36.0,-100.00,SSW,210,2.0,5.0,53,0.00,,,0.00,0.000000,,2013-07-26 11:43:00,
2013-07-26 05:52:00,53.0,36.0,-100.00,SSW,210,2.0,5.0,53,0.00,,,0.00,0.000000,,2013-07-26 11:52:00,
2013-07-26 06:02:00,53.0,36.0,-100.00,SSW,210,2.0,5.0,53,0.00,,,0.00,0.000000,,2013-07-26 12:02:00,
2013-07-26 06:12:00,53.0,36.0,-100.00,SSW,210,2.0,5.0,53,0.00,,,0.00,0.000000,,2013-07-26 12:12:00,
2013-07-26 06:43:00,52.0,36.0,-100.00,SW,232,3.0,5.0,55,0.00,,,0.00,0.000000,,2013-07-26 12:43:00,
2013-07-26 06:53:00,52.0,36.0,-100.00,SW,232,3.0,5.0,55,0.00,,,0.00,0.000000,,2013-07-26 12:53:00,
2013-07-26 07:02:00,52.0,36.0,-100.00,SW,232,3.0,5.0,55,0.00,,,0.00,0.000000,,2013-07-26 13:02:00,
2013-07-26 07:12:00,52.0,36.0,-100.00,SW,232,3.0,5.0,55,0.00,,,0.00,0.000000,,2013-07-26 13:12:00,
2013-07-26 07:43:00,51.0,36.0,-100.00,WSW,253,2.0,6.0,57,0.00,,,0.00,1.000000,,2013-07-26 13:43:00,
2013-07-26 07:53:00,51.0,36.0,-100.00,WSW,253,2.0,6.0,57,0.00,,,0.00,1.000000,,2013-07-26 13:53:00,
2013-07-26 08:02:00,51.0,36.0,-100.00,WSW,253,2.0,6.0,57,0.00,,,0.00,1.000000,,2013-07-26 14:02:00,
2013-07-26 08:11:00,51.0,36.0,-100.00,WSW,253,2.0,6.0,57,0.00,,,0.00,1.000000,,2013-07-26 14:11:00,
2013-07-26 08:43:00,50.0,37.0,-100.00,West,272,1.0,7.0,60,0.00,,,0.00,17.000000,,2013-07-26 14:43:00,
2013-07-26 08:53:00,50.0,37.0,-100.00,West,272,1.0,7.0,60,0.00,,,0.00,17.000000,,2013-07-26 14:53:00,
2013-07-26 09:02:00,50.0,37.0,-100.00,West,272,1.0,7.0,60,0.00,,,0.00,17.000000,,2013-07-26 15:02:00,
2013-07-26 09:14:00,57.0,36.0,-100.00,SW,231,3.0,8.0,46,-99.99,,,0.00,48.000000,,2013-07-26 15:14:00,
2013-07-26 09:43:00,57.0,36.0,-100.00,SW,231,3.0,8.0,46,-99.99,,,0.00,48.000000,,2013-07-26 15:43:00,
2013-07-26 09:53:00,57.0,36.0,-100.00,SW,231,3.0,8.0,46,-99.99,,,0.00,48.000000,,2013-07-26 15:53:00,
2013-07-26 10:02:00,57.0,36.0,-100.00,SW,231,3.0,8.0,46,-99.99,,,0.00,48.000000,,2013-07-26 16:02:00,
2013-07-26 10:43:00,66.0,40.0,-100.00,South,188,3.0,7.0,38,0.00,,,0.00,307.000000,,2013-07-26 16:43:00,
2013-07-26 10:54:00,66.0,40.0,-100.00,South,188,3.0,7.0,38,0.00,,,0.00,307.000000,,2013-07-26 16:54:00,
2013-07-26 11:33:00,76.0,40.0,-100.00,ESE,117,3.0,5.0,27,-99.99,,,0.00,594.000000,,2013-07-26 17:33:00,
2013-07-26 11:43:00,76.0,40.0,-100.00,ESE,117,3.0,5.0,27,-99.99,,,0.00,594.000000,,2013-07-26 17:43:00,
2013-07-26 11:53:00,76.0,40.0,-100.00,ESE,117,3.0,5.0,27,-99.99,,,0.00,594.000000,,2013-07-26 17:53:00,
2013-07-26 12:02:00,76.0,40.0,-100.00,ESE,117,3.0,5.0,27,-99.99,,,0.00,594.000000,,2013-07-26 18:02:00,
2013-07-26 12:12:00,76.0,40.0,-100.00,ESE,117,3.0,5.0,27,-99.99,,,0.00,594.000000,,2013-07-26 18:12:00,
2013-07-26 12:44:00,85.0,37.0,-100.00,SE,144,4.0,7.0,18,0.00,,,0.00,783.000000,,2013-07-26 18:44:00,
2013-07-26 12:52:00,85.0,37.0,-100.00,SE,144,4.0,7.0,18,0.00,,,0.00,783.000000,,2013-07-26 18:52:00,
2013-07-26 13:02:00,85.0,37.0,-100.00,SE,144,4.0,7.0,18,0.00,,,0.00,783.000000,,2013-07-26 19:02:00,
2013-07-26 13:11:00,85.0,37.0,-100.00,SE,144,4.0,7.0,18,0.00,,,0.00,783.000000,,2013-07-26 19:11:00,
2013-07-26 13:43:00,92.0,38.0,-100.00,SE,137,4.0,8.0,15,0.00,,,0.00,919.000000,,2013-07-26 19:43:00,
2013-07-26 13:52:00,92.0,38.0,-100.00,SE,137,4.0,8.0,15,0.00,,,0.00,919.000000,,2013-07-26 19:52:00,
2013-07-26 14:02:00,92.0,38.0,-100.00,SE,137,4.0,8.0,15,0.00,,,0.00,919.000000,,2013-07-26 20:02:00,
2013-07-26 14:11:00,92.0,38.0,-100.00,SE,137,4.0,8.0,15,0.00,,,0.00,919.000000,,2013-07-26 20:11:00,
2013-07-26 14:43:00,91.0,29.0,-100.00,ENE,70,4.0,11.0,11,0.00,,,0.00,929.000000,,2013-07-26 20:43:00,
2013-07-26 14:53:00,91.0,29.0,-100.00,ENE,70,4.0,11.0,11,0.00,,,0.00,929.000000,,2013-07-26 20:53:00,
2013-07-26 15:02:00,91.0,29.0,-100.00,ENE,70,4.0,11.0,11,0.00,,,0.00,929.000000,,2013-07-26 21:02:00,
2013-07-26 15:12:00,91.0,29.0,-100.00,ENE,70,4.0,11.0,11,0.00,,,0.00,929.000000,,2013-07-26 21:12:00,
2013-07-26 16:33:00,93.0,31.0,-100.00,NNE,17,8.0,17.0,11,0.00,,,0.00,907.000000,,2013-07-26 22:33:00,
2013-07-26 16:43:00,93.0,31.0,-100.00,NNE,17,8.0,17.0,11,0.00,,,0.00,907.000000,,2013-07-26 22:43:00,
2013-07-26 16:53:00,93.0,31.0,-100.00,NNE,17,8.0,17.0,11,0.00,,,0.00,907.000000,,2013-07-26 22:53:00,
2013-07-26 17:02:00,93.0,31.0,-100.00,NNE,17,8.0,17.0,11,0.00,,,0.00,907.000000,,2013-07-26 23:02:00,
2013-07-26 17:11:00,93.0,31.0,-100.00,NNE,17,8.0,17.0,11,0.00,,,0.00,907.000000,,2013-07-26 23:11:00,
2013-07-26 17:43:00,92.0,32.0,-100.00,South,177,6.0,17.0,12,0.00,,,-99.99,416.000000,,2013-07-26 23:43:00,
2013-07-26 17:53:00,92.0,32.0,-100.00,South,177,6.0,17.0,12,0.00,,,-99.99,416.000000,,2013-07-26 23:53:00,
2013-07-26 18:02:00,92.0,32.0,-100.00,South,177,6.0,17.0,12,0.00,,,-99.99,416.000000,,2013-07-27 00:02:00,
2013-07-26 18:11:00,92.0,32.0,-100.00,South,177,6.0,17.0,12,0.00,,,-99.99,416.000000,,2013-07-27 00:11:00,
2013-07-26 18:43:00,87.0,32.0,-100.00,SW,220,5.0,12.0,14,0.00,,,0.00,279.000000,,2013-07-27 00:43:00,
2013-07-26 18:53:00,87.0,32.0,-100.00,SW,220,5.0,12.0,14,0.00,,,0.00,279.000000,,2013-07-27 00:53:00,
2013-07-26 19:02:00,87.0,32.0,-100.00,SW,220,5.0,12.0,14,0.00,,,0.00,279.000000,,2013-07-27 01:02:00,
2013-07-26 19:12:00,87.0,32.0,-100.00,SW,220,5.0,12.0,14,0.00,,,0.00,279.000000,,2013-07-27 01:12:00,
2013-07-26 19:32:00,83.0,35.0,-100.00,SW,229,3.0,14.0,18,0.00,,,0.00,101.000000,,2013-07-27 01:32:00,
2013-07-26 19:44:00,83.0,35.0,-100.00,SW,229,3.0,14.0,18,0.00,,,0.00,101.000000,,2013-07-27 01:44:00,
2013-07-26 19:53:00,83.0,35.0,-100.00,SW,229,3.0,14.0,18,0.00,,,0.00,101.000000,,2013-07-27 01:53:00,
2013-07-26 20:02:00,83.0,35.0,-100.00,SW,229,3.0,14.0,18,0.00,,,0.00,101.000000,,2013-07-27 02:02:00,
2013-07-26 20:11:00,83.0,35.0,-100.00,SW,229,3.0,14.0,18,0.00,,,0.00,101.000000,,2013-07-27 02:11:00,
2013-07-26 20:32:00,87.0,37.0,-100.00,SW,228,4.0,10.0,17,0.00,,,-99.99,482.000000,,2013-07-27 02:32:00,
2013-07-26 20:43:00,87.0,37.0,-100.00,SW,228,4.0,10.0,17,0.00,,,-99.99,482.000000,,2013-07-27 02:43:00,
2013-07-26 20:53:00,87.0,37.0,-100.00,SW,228,4.0,10.0,17,0.00,,,-99.99,482.000000,,2013-07-27 02:53:00,
2013-07-26 21:02:00,87.0,37.0,-100.00,SW,228,4.0,10.0,17,0.00,,,-99.99,482.000000,,2013-07-27 03:02:00,
2013-07-26 21:12:00,87.0,37.0,-100.00,SW,228,4.0,10.0,17,0.00,,,-99.99,482.000000,,2013-07-27 03:12:00,
2013-07-26 21:44:00,78.0,40.0,-100.00,WNW,303,3.0,7.0,26,0.00,,,0.00,82.000000,,2013-07-27 03:44:00,
2013-07-26 21:52:00,78.0,40.0,-100.00,WNW,303,3.0,7.0,26,0.00,,,0.00,82.000000,,2013-07-27 03:52:00,
2013-07-26 22:02:00,78.0,40.0,-100.00,WNW,303,3.0,7.0,26,0.00,,,0.00,82.000000,,2013-07-27 04:02:00,
2013-07-26 22:12:00,78.0,40.0,-100.00,WNW,303,3.0,7.0,26,0.00,,,0.00,82.000000,,2013-07-27 04:12:00,
2013-07-26 22:32:00,71.0,41.0,-100.00,WNW,287,2.0,4.0,34,0.00,,,0.00,16.000000,,2013-07-27 04:32:00,
2013-07-26 22:43:00,71.0,41.0,-100.00,WNW,287,2.0,4.0,34,0.00,,,0.00,16.000000,,2013-07-27 04:43:00,
2013-07-26 22:53:00,71.0,41.0,-100.00,WNW,287,2.0,4.0,34,0.00,,,0.00,16.000000,,2013-07-27 04:53:00,
2013-07-26 23:02:00,71.0,41.0,-100.00,WNW,287,2.0,4.0,34,0.00,,,0.00,16.000000,,2013-07-27 05:02:00,
2013-07-26 23:12:00,71.0,41.0,-100.00,WNW,287,2.0,4.0,34,0.00,,,0.00,16.000000,,2013-07-27 05:12:00,
2013-07-26 23:33:00,67.0,40.0,-100.00,WNW,298,2.0,4.0,37,0.00,,,0.00,1.000000,,2013-07-27 05:33:00,
2013-07-26 23:43:00,67.0,40.0,-100.00,WNW,298,2.0,4.0,37,0.00,,,0.00,1.000000,,2013-07-27 05:43:00,
2013-07-26 23:52:00,67.0,40.0,-100.00,WNW,298,2.0,4.0,37,0.00,,,0.00,1.000000,,2013-07-27 05:52:00,